Time;durP1;ratioP1;P1;durP2;ratioP2;P2;SDS_P1;SDS_P2;PMS_P1;PMS_P2;Temp;Humidity;BMP_temperature;BMP_pressure;BME280_temperature;BME280_humidity;BME280_pressure;Samples;Min_cycle;Max_cycle;Signal;HPM_P1;HPM_P2
2023/08/10 00:01:46;;;;;;;3.20;0.52;;;;;;;17.26;100.00;101291.53;5025246;28;20057;-57
2023/08/10 00:04:11;;;;;;;2.33;1.40;;;;;;;17.21;100.00;101297.53;5020224;28;20067;-55
2023/08/10 00:06:39;;;;;;;1.02;0.95;;;;;;;17.08;100.00;101298.44;5012739;28;20029;-55
2023/08/10 00:09:04;;;;;;;2.30;0.52;;;;;;;17.01;100.00;101292.28;5014199;28;20116;-56
2023/08/10 00:11:30;;;;;;;0.73;0.73;;;;;;;16.98;100.00;101295.41;5020145;28;20037;-58
2023/08/10 00:13:55;;;;;;;1.08;0.68;;;;;;;16.95;100.00;101295.81;5017647;28;20135;-56
2023/08/10 00:16:20;;;;;;;1.60;1.38;;;;;;;16.99;100.00;101297.06;5024532;28;20026;-57
2023/08/10 00:18:46;;;;;;;0.55;0.47;;;;;;;16.94;100.00;101294.19;5018198;28;20025;-57
2023/08/10 00:21:11;;;;;;;2.00;0.90;;;;;;;16.91;100.00;101295.44;5018289;28;20124;-54
2023/08/10 00:23:36;;;;;;;5.50;0.95;;;;;;;16.93;100.00;101295.22;5018354;28;20035;-56
2023/08/10 00:26:02;;;;;;;0.93;0.60;;;;;;;16.92;100.00;101285.53;5027616;28;20067;-58
2023/08/10 00:28:28;;;;;;;1.42;1.30;;;;;;;16.88;100.00;101289.66;5024986;28;20422;-53
2023/08/10 00:30:54;;;;;;;3.53;0.77;;;;;;;16.78;100.00;101280.25;5022771;28;20037;-56
2023/08/10 00:33:20;;;;;;;0.40;0.40;;;;;;;16.72;100.00;101286.41;5013447;28;20030;-54
2023/08/10 00:35:45;;;;;;;0.85;0.70;;;;;;;16.56;100.00;101293.06;5020648;28;20045;-55
2023/08/10 00:38:11;;;;;;;1.23;1.08;;;;;;;16.45;100.00;101291.03;5020332;28;20025;-56
2023/08/10 00:40:36;;;;;;;0.93;0.85;;;;;;;16.45;100.00;101298.25;5017109;28;20040;-55
2023/08/10 00:43:02;;;;;;;0.68;0.60;;;;;;;16.45;100.00;101295.56;5016352;28;20840;-55
2023/08/10 00:45:28;;;;;;;1.00;0.75;;;;;;;16.44;100.00;101288.56;5021929;28;20037;-58
2023/08/10 00:47:54;;;;;;;0.88;0.88;;;;;;;16.37;100.00;101291.28;5026770;28;20033;-57
2023/08/10 00:50:20;;;;;;;2.10;0.75;;;;;;;16.25;100.00;101291.06;5019205;28;20026;-57
2023/08/10 00:52:46;;;;;;;2.35;0.52;;;;;;;16.26;100.00;101287.38;5022986;28;20037;-55
2023/08/10 00:55:11;;;;;;;1.70;1.00;;;;;;;16.23;100.00;101282.44;5022928;28;20439;-58
2023/08/10 00:57:37;;;;;;;1.38;0.82;;;;;;;16.19;100.00;101281.22;5029115;28;20033;-55
2023/08/10 01:00:05;;;;;;;0.63;0.63;;;;;;;16.21;100.00;101279.16;5019169;28;20036;-58
2023/08/10 01:02:31;;;;;;;0.95;0.50;;;;;;;16.18;100.00;101284.09;5020040;28;20481;-58
2023/08/10 01:04:57;;;;;;;4.00;0.70;;;;;;;16.21;100.00;101284.50;5028898;28;20072;-57
2023/08/10 01:07:34;;;;;;;0.57;0.55;;;;;;;16.17;100.00;101287.81;5020643;28;20558;-55
2023/08/10 01:10:31;;;;;;;1.08;0.45;;;;;;;16.11;100.00;101279.59;5021823;28;20550;-59
2023/08/10 01:13:02;;;;;;;1.27;1.02;;;;;;;15.98;100.00;101286.78;5017551;28;20041;-57
2023/08/10 01:15:54;;;;;;;1.17;0.95;;;;;;;15.96;100.00;101286.19;5021667;28;20029;-56
2023/08/10 01:18:25;;;;;;;1.33;0.45;;;;;;;15.98;100.00;101279.59;5027407;28;20056;-53
2023/08/10 01:20:53;;;;;;;0.60;0.52;;;;;;;15.97;100.00;101274.44;5017968;28;20049;-56
2023/08/10 01:23:23;;;;;;;0.50;0.50;;;;;;;15.88;100.00;101277.34;5016376;28;20037;-56
2023/08/10 01:25:51;;;;;;;13.45;1.08;;;;;;;15.83;100.00;101277.13;5026595;28;20057;-58
2023/08/10 01:28:17;;;;;;;0.75;0.75;;;;;;;15.75;100.00;101265.81;5026878;28;20226;-57
2023/08/10 01:30:44;;;;;;;2.00;0.80;;;;;;;15.66;100.00;101270.50;5022946;28;20065;-54
2023/08/10 01:33:09;;;;;;;10.93;0.63;;;;;;;15.45;100.00;101280.38;5024490;28;20286;-56
2023/08/10 01:35:39;;;;;;;2.30;0.40;;;;;;;15.55;100.00;101279.16;5021181;28;20103;-57
2023/08/10 01:38:04;;;;;;;1.60;0.40;;;;;;;15.43;100.00;101277.06;5019263;28;20418;-54
2023/08/10 01:40:33;;;;;;;1.08;0.30;;;;;;;15.37;100.00;101274.41;5023549;28;20037;-57
2023/08/10 01:42:59;;;;;;;3.15;0.57;;;;;;;15.41;100.00;101279.16;5021201;28;20681;-54
2023/08/10 01:45:24;;;;;;;0.80;0.50;;;;;;;15.26;100.00;101286.53;5020455;28;20080;-57
2023/08/10 01:47:56;;;;;;;1.10;0.40;;;;;;;15.47;100.00;101278.31;5027472;28;20517;-55
2023/08/10 01:50:24;;;;;;;0.10;0.10;;;;;;;15.56;100.00;101278.13;5020387;28;20148;-57
2023/08/10 01:53:28;;;;;;;0.63;0.63;;;;;;;15.53;100.00;101270.50;5018718;28;20025;-55
2023/08/10 01:55:54;;;;;;;2.05;1.02;;;;;;;15.30;100.00;101268.22;5026550;28;20064;-58
2023/08/10 01:58:19;;;;;;;0.50;0.40;;;;;;;15.19;100.00;101265.13;5017152;28;20534;-54
2023/08/10 02:00:45;;;;;;;1.38;0.80;;;;;;;15.48;100.00;101263.09;5023107;28;20544;-58
2023/08/10 02:03:10;;;;;;;1.40;0.47;;;;;;;15.52;100.00;101256.34;5015006;28;20498;-56
2023/08/10 02:05:35;;;;;;;0.68;0.50;;;;;;;15.54;100.00;101254.28;5017651;28;20114;-54
2023/08/10 02:08:01;;;;;;;0.70;0.70;;;;;;;15.51;100.00;101243.16;5013368;28;20112;-57
2023/08/10 02:10:26;;;;;;;2.80;0.30;;;;;;;15.35;100.00;101237.19;5021092;28;20111;-57
2023/08/10 02:12:52;;;;;;;0.40;0.40;;;;;;;15.16;100.00;101243.34;5019950;28;20454;-59
2023/08/10 02:15:17;;;;;;;2.08;0.55;;;;;;;15.15;100.00;101237.16;5028531;28;20031;-56
2023/08/10 02:17:42;;;;;;;5.40;0.38;;;;;;;15.08;100.00;101241.69;5022251;28;20067;-59
2023/08/10 02:20:12;;;;;;;1.75;1.00;;;;;;;15.08;100.00;101248.88;5022264;28;20044;-58
2023/08/10 02:22:45;;;;;;;0.98;0.55;;;;;;;14.97;100.00;101251.09;5029937;28;20392;-55
2023/08/10 02:25:10;;;;;;;0.35;0.35;;;;;;;15.31;100.00;101251.16;5022989;28;20037;-57
2023/08/10 02:27:37;;;;;;;1.33;0.98;;;;;;;15.27;100.00;101245.41;5018713;28;20033;-57
2023/08/10 02:30:03;;;;;;;0.90;0.52;;;;;;;15.01;100.00;101251.50;5019148;28;20697;-57
2023/08/10 02:32:28;;;;;;;0.60;0.43;;;;;;;15.25;100.00;101247.44;5026091;28;20299;-58
2023/08/10 02:34:53;;;;;;;0.57;0.57;;;;;;;15.03;100.00;101255.63;5022241;28;20044;-58
2023/08/10 02:37:19;;;;;;;0.70;0.43;;;;;;;15.40;100.00;101240.06;5019444;28;20074;-53
2023/08/10 02:39:44;;;;;;;1.70;1.15;;;;;;;15.30;100.00;101247.66;5019009;28;20044;-56
2023/08/10 02:42:10;;;;;;;0.75;0.55;;;;;;;14.89;100.00;101259.28;5020416;28;20387;-54
2023/08/10 02:44:35;;;;;;;1.23;0.80;;;;;;;14.69;100.00;101259.22;5015570;28;20061;-57
2023/08/10 02:47:00;;;;;;;2.85;0.32;;;;;;;15.26;100.00;101246.44;5023325;28;20030;-59
2023/08/10 02:49:26;;;;;;;0.50;0.32;;;;;;;15.27;100.00;101240.06;5019893;28;20368;-55
2023/08/10 02:51:51;;;;;;;1.15;0.60;;;;;;;15.25;100.00;101237.56;5021325;28;20204;-58
2023/08/10 02:54:16;;;;;;;0.75;0.75;;;;;;;15.19;100.00;101238.41;5024795;28;20029;-54
2023/08/10 02:56:42;;;;;;;1.15;0.60;;;;;;;15.06;100.00;101238.38;5016574;28;20040;-57
2023/08/10 02:59:07;;;;;;;8.15;0.25;;;;;;;14.74;100.00;101255.94;5017383;28;20638;-56
2023/08/10 03:01:32;;;;;;;1.08;0.65;;;;;;;15.01;100.00;101238.97;5018513;28;20068;-59
2023/08/10 03:03:58;;;;;;;0.90;0.50;;;;;;;15.06;100.00;101243.72;5023473;28;21164;-56
2023/08/10 03:06:23;;;;;;;2.88;0.90;;;;;;;15.08;100.00;101235.53;5019204;28;20467;-57
2023/08/10 03:08:48;;;;;;;0.80;0.68;;;;;;;14.96;100.00;101244.09;5018975;28;20033;-58
2023/08/10 03:11:14;;;;;;;0.45;0.40;;;;;;;14.74;100.00;101239.91;5026717;28;20452;-57
2023/08/10 03:13:39;;;;;;;1.98;1.13;;;;;;;14.88;100.00;101236.28;5016056;28;20060;-56
2023/08/10 03:16:04;;;;;;;2.20;0.82;;;;;;;14.78;100.00;101239.31;5017862;28;20037;-57
2023/08/10 03:18:30;;;;;;;0.47;0.40;;;;;;;14.64;100.00;101247.47;5020668;28;20034;-55
2023/08/10 03:20:55;;;;;;;0.60;0.60;;;;;;;14.79;100.00;101242.81;5022405;28;20064;-57
2023/08/10 03:23:20;;;;;;;0.60;0.35;;;;;;;14.77;100.00;101250.22;5015068;28;20457;-58
2023/08/10 03:25:46;;;;;;;8.55;1.52;;;;;;;14.62;100.00;101250.34;5019480;28;20037;-55
2023/08/10 03:28:11;;;;;;;0.60;0.50;;;;;;;14.87;100.00;101245.31;5020318;28;20021;-53
2023/08/10 03:30:37;;;;;;;0.57;0.57;;;;;;;14.83;100.00;101230.72;5030182;28;20029;-57
2023/08/10 03:33:03;;;;;;;1.17;0.70;;;;;;;14.59;100.00;101234.75;5019595;28;20087;-56
2023/08/10 03:35:28;;;;;;;0.82;0.63;;;;;;;14.58;100.00;101238.41;5020499;28;20021;-57
2023/08/10 03:37:53;;;;;;;0.95;0.93;;;;;;;14.58;100.00;101231.22;5016738;28;20040;-56
2023/08/10 03:40:19;;;;;;;0.50;0.50;;;;;;;14.58;100.00;101230.41;5022162;28;20033;-60
2023/08/10 03:42:44;;;;;;;0.63;0.35;;;;;;;14.53;100.00;101228.38;5017609;28;20151;-57
2023/08/10 03:45:09;;;;;;;3.40;1.75;;;;;;;14.47;100.00;101229.09;5019470;28;20544;-57
2023/08/10 03:47:35;;;;;;;0.50;0.35;;;;;;;14.50;100.00;101234.03;5018830;28;20394;-57
2023/08/10 03:50:00;;;;;;;0.30;0.30;;;;;;;14.58;100.00;101233.09;5013064;28;20029;-54
2023/08/10 03:52:26;;;;;;;0.47;0.47;;;;;;;14.71;100.00;101229.66;5021092;28;20136;-55
2023/08/10 03:54:51;;;;;;;0.88;0.70;;;;;;;14.76;100.00;101227.19;5021720;28;20033;-56
2023/08/10 03:57:16;;;;;;;0.60;0.55;;;;;;;14.71;100.00;101226.97;5020427;28;20081;-59
2023/08/10 03:59:42;;;;;;;2.28;0.68;;;;;;;14.59;100.00;101232.91;5012541;28;20029;-56
2023/08/10 04:02:08;;;;;;;0.40;0.40;;;;;;;14.57;100.00;101240.28;5015509;28;20045;-56
2023/08/10 04:04:33;;;;;;;3.30;1.27;;;;;;;14.56;100.00;101243.97;5017694;28;20034;-56
2023/08/10 04:06:59;;;;;;;2.95;0.60;;;;;;;14.53;100.00;101232.84;5021381;28;20456;-56
2023/08/10 04:09:24;;;;;;;3.72;0.90;;;;;;;14.45;100.00;101231.16;5020902;28;20514;-58
2023/08/10 04:11:50;;;;;;;3.33;0.40;;;;;;;14.36;100.00;101225.16;5021970;28;20398;-58
2023/08/10 04:14:15;;;;;;;0.68;0.30;;;;;;;14.27;100.00;101225.50;5022911;28;20120;-56
2023/08/10 04:16:41;;;;;;;1.17;0.57;;;;;;;14.28;100.00;101227.19;5023173;28;20045;-56
2023/08/10 04:19:06;;;;;;;0.75;0.45;;;;;;;14.23;100.00;101237.63;5021527;28;20334;-56
2023/08/10 04:21:32;;;;;;;1.05;0.45;;;;;;;14.44;100.00;101245.53;5027752;28;20178;-56
2023/08/10 04:23:57;;;;;;;0.35;0.30;;;;;;;14.46;100.00;101229.31;5016791;28;20029;-60
2023/08/10 04:26:22;;;;;;;0.55;0.55;;;;;;;14.46;100.00;101240.81;5033021;28;20523;-55
2023/08/10 04:28:48;;;;;;;0.60;0.30;;;;;;;14.34;100.00;101240.53;5024266;28;20037;-57
2023/08/10 04:31:14;;;;;;;0.93;0.30;;;;;;;14.46;100.00;101243.47;5033625;28;20025;-56
2023/08/10 04:33:40;;;;;;;3.03;0.30;;;;;;;14.25;100.00;101240.88;5025833;28;20144;-56
2023/08/10 04:36:07;;;;;;;0.30;0.22;;;;;;;14.47;100.00;101239.78;5028569;28;20517;-54
2023/08/10 04:38:32;;;;;;;1.17;0.60;;;;;;;14.45;100.00;101247.16;5023889;28;20466;-57
2023/08/10 04:40:58;;;;;;;0.50;0.45;;;;;;;14.38;100.00;101249.81;5026974;28;20033;-58
2023/08/10 04:43:23;;;;;;;2.25;0.63;;;;;;;14.40;100.00;101255.78;5030137;28;20499;-54
2023/08/10 04:45:48;;;;;;;0.43;0.30;;;;;;;14.39;100.00;101251.44;5017183;28;20048;-58
2023/08/10 04:48:15;;;;;;;2.72;1.45;;;;;;;14.32;100.00;101247.91;5022413;28;20040;-57
2023/08/10 04:50:40;;;;;;;4.88;1.85;;;;;;;14.29;100.00;101247.50;5017146;28;20142;-58
2023/08/10 04:53:06;;;;;;;11.05;0.82;;;;;;;14.28;100.00;101235.19;5028192;28;20100;-57
2023/08/10 04:55:31;;;;;;;0.45;0.40;;;;;;;14.22;100.00;101241.28;5027552;28;20041;-56
2023/08/10 04:57:56;;;;;;;0.93;0.47;;;;;;;14.21;100.00;101239.66;5026729;28;20168;-56
2023/08/10 05:00:23;;;;;;;3.03;0.38;;;;;;;14.12;100.00;101246.97;5037040;28;20132;-55
2023/08/10 05:02:49;;;;;;;0.60;0.35;;;;;;;14.22;100.00;101252.78;5029406;28;20584;-57
2023/08/10 05:05:14;;;;;;;0.77;0.47;;;;;;;14.17;100.00;101253.38;5026726;28;20034;-58
2023/08/10 05:07:40;;;;;;;0.77;0.77;;;;;;;14.24;100.00;101256.06;5022848;28;20073;-56
2023/08/10 05:10:07;;;;;;;1.23;0.32;;;;;;;13.98;100.00;101264.72;5025949;28;20044;-53
2023/08/10 05:12:35;;;;;;;0.57;0.47;;;;;;;14.03;100.00;101270.31;5031535;28;20108;-56
2023/08/10 05:15:03;;;;;;;1.38;0.50;;;;;;;14.48;100.00;101261.94;5028050;28;20077;-54
2023/08/10 05:17:28;;;;;;;0.63;0.40;;;;;;;14.48;100.00;101246.78;5030187;28;20032;-55
2023/08/10 05:19:53;;;;;;;2.13;0.73;;;;;;;14.47;100.00;101253.13;5034036;28;21498;-57
2023/08/10 05:22:19;;;;;;;1.00;0.95;;;;;;;14.46;100.00;101248.81;5023511;28;20048;-59
2023/08/10 05:24:45;;;;;;;1.08;0.57;;;;;;;14.47;100.00;101253.13;5024088;28;20029;-59
2023/08/10 05:27:10;;;;;;;0.30;0.30;;;;;;;14.51;100.00;101256.25;5030037;28;20851;-58
2023/08/10 05:29:35;;;;;;;1.60;0.90;;;;;;;14.60;100.00;101252.41;5023629;28;20096;-57
2023/08/10 05:32:00;;;;;;;0.43;0.30;;;;;;;14.65;100.00;101249.13;5028977;28;20497;-58
2023/08/10 05:34:26;;;;;;;0.43;0.38;;;;;;;14.64;100.00;101240.31;5024164;28;20037;-57
2023/08/10 05:36:51;;;;;;;2.03;0.32;;;;;;;14.63;100.00;101237.81;5023589;28;20029;-56
2023/08/10 05:39:16;;;;;;;1.27;0.82;;;;;;;14.69;100.00;101235.19;5015686;28;20037;-53
2023/08/10 05:41:42;;;;;;;4.63;0.73;;;;;;;14.71;100.00;101240.31;5025879;28;20037;-52
2023/08/10 05:44:07;;;;;;;0.43;0.43;;;;;;;14.67;100.00;101228.41;5019015;28;20057;-58
2023/08/10 05:46:33;;;;;;;1.25;0.35;;;;;;;14.72;100.00;101233.97;5027456;28;20157;-60
2023/08/10 05:48:59;;;;;;;1.35;0.63;;;;;;;14.75;100.00;101236.25;5024797;28;20514;-58
2023/08/10 05:51:24;;;;;;;1.00;0.52;;;;;;;14.74;100.00;101240.75;5022630;28;20037;-55
2023/08/10 05:53:49;;;;;;;1.50;0.73;;;;;;;14.64;100.00;101252.81;5020006;28;20034;-56
2023/08/10 05:56:14;;;;;;;1.85;0.55;;;;;;;14.78;100.00;101252.66;5025482;28;20029;-56
2023/08/10 05:58:40;;;;;;;0.82;0.70;;;;;;;14.59;100.00;101259.59;5025483;28;20371;-57
2023/08/10 06:01:05;;;;;;;0.75;0.63;;;;;;;15.09;100.00;101259.34;5021866;28;20088;-54
2023/08/10 06:03:31;;;;;;;0.98;0.93;;;;;;;15.21;100.00;101244.38;5019101;28;20454;-58
2023/08/10 06:05:56;;;;;;;0.75;0.70;;;;;;;15.22;100.00;101255.88;5019421;28;20408;-56
2023/08/10 06:08:22;;;;;;;2.03;0.80;;;;;;;15.20;100.00;101258.75;5022949;28;20507;-57
2023/08/10 06:10:51;;;;;;;3.67;0.52;;;;;;;15.25;100.00;101268.81;5018933;28;20435;-54
2023/08/10 06:13:18;;;;;;;1.60;0.60;;;;;;;15.38;100.00;101265.34;5023368;28;20933;-58
2023/08/10 06:15:46;;;;;;;1.67;0.85;;;;;;;15.37;100.00;101261.84;5023643;28;20057;-56
2023/08/10 06:18:12;;;;;;;0.90;0.45;;;;;;;15.39;100.00;101264.34;5020888;28;20025;-55
2023/08/10 06:20:37;;;;;;;0.88;0.88;;;;;;;15.43;100.00;101260.22;5023323;28;20440;-56
2023/08/10 06:23:02;;;;;;;1.45;0.70;;;;;;;15.49;100.00;101260.25;5020218;28;20041;-58
2023/08/10 06:25:30;;;;;;;1.63;0.75;;;;;;;15.61;100.00;101267.63;5018862;28;20605;-60
2023/08/10 06:27:57;;;;;;;1.58;0.45;;;;;;;15.79;100.00;101259.84;5018575;28;20042;-59
2023/08/10 06:30:23;;;;;;;2.00;1.00;;;;;;;15.95;100.00;101260.47;5014496;28;20532;-57
2023/08/10 06:32:49;;;;;;;3.17;1.20;;;;;;;16.03;100.00;101269.09;5020477;28;20539;-57
2023/08/10 06:35:14;;;;;;;0.65;0.63;;;;;;;16.05;100.00;101269.69;5027220;28;20414;-57
2023/08/10 06:37:39;;;;;;;0.75;0.75;;;;;;;16.14;100.00;101273.00;5019655;28;20557;-56
2023/08/10 06:40:08;;;;;;;1.40;0.68;;;;;;;16.28;100.00;101268.44;5018387;28;20743;-54
2023/08/10 06:42:34;;;;;;;1.40;0.80;;;;;;;16.52;100.00;101272.25;5022860;28;20037;-52
2023/08/10 06:44:59;;;;;;;3.00;1.08;;;;;;;16.71;100.00;101279.41;5018493;28;20026;-57
2023/08/10 06:47:24;;;;;;;1.83;1.10;;;;;;;16.89;100.00;101269.91;5010435;28;20030;-53
2023/08/10 06:49:50;;;;;;;2.05;1.25;;;;;;;17.08;100.00;101263.59;5013670;28;20036;-54
2023/08/10 06:52:15;;;;;;;1.50;1.05;;;;;;;17.25;100.00;101266.59;5022894;28;20026;-56
2023/08/10 06:54:40;;;;;;;0.50;0.50;;;;;;;17.34;100.00;101259.94;5023564;28;20128;-53
2023/08/10 06:57:06;;;;;;;0.70;0.40;;;;;;;17.44;100.00;101262.94;5023132;28;20120;-54
2023/08/10 06:59:32;;;;;;;0.32;0.32;;;;;;;17.58;100.00;101269.06;5014663;28;20057;-55
2023/08/10 07:01:58;;;;;;;2.05;1.85;;;;;;;17.77;100.00;101272.59;5013585;28;20077;-51
2023/08/10 07:04:24;;;;;;;1.17;0.52;;;;;;;17.90;100.00;101274.38;5018272;28;20084;-49
2023/08/10 07:06:49;;;;;;;1.08;0.77;;;;;;;18.09;100.00;101268.00;5026360;28;20496;-52
2023/08/10 07:09:14;;;;;;;0.30;0.30;;;;;;;18.30;100.00;101260.56;5006105;28;20033;-56
2023/08/10 07:11:40;;;;;;;1.85;0.10;;;;;;;18.42;100.00;101253.41;5015505;28;20124;-55
2023/08/10 07:14:05;;;;;;;0.38;0.20;;;;;;;18.59;100.00;101250.13;5011617;28;20032;-55
2023/08/10 07:16:31;;;;;;;0.68;0.10;;;;;;;18.74;100.00;101251.38;5013476;28;20442;-53
2023/08/10 07:18:57;;;;;;;0.30;0.28;;;;;;;18.98;100.00;101240.75;5013248;28;20352;-52
2023/08/10 07:21:22;;;;;;;0.28;0.28;;;;;;;19.11;100.00;101231.69;5015298;28;20033;-54
2023/08/10 07:23:48;;;;;;;0.10;0.10;;;;;;;19.25;100.00;101206.22;5012866;28;20036;-55
2023/08/10 07:26:13;;;;;;;0.20;0.20;;;;;;;19.33;100.00;101200.50;5013841;28;20390;-53
2023/08/10 07:28:39;;;;;;;2.28;0.17;;;;;;;19.50;100.00;101195.28;5008929;28;22065;-52
2023/08/10 07:31:04;;;;;;;0.75;0.20;;;;;;;19.63;100.00;101185.34;5007996;28;20132;-56
2023/08/10 07:33:30;;;;;;;0.25;0.17;;;;;;;19.64;100.00;101185.09;5008079;28;20120;-54
2023/08/10 07:35:55;;;;;;;1.10;0.10;;;;;;;19.72;100.00;101171.34;5008500;28;20040;-52
2023/08/10 07:38:20;;;;;;;0.20;0.20;;;;;;;19.86;100.00;101173.78;5013897;28;20116;-57
2023/08/10 07:40:46;;;;;;;0.17;0.15;;;;;;;20.07;100.00;101175.84;5015789;28;20068;-54
2023/08/10 07:43:11;;;;;;;0.20;0.20;;;;;;;20.29;100.00;101172.53;5015026;28;20044;-50
2023/08/10 07:45:36;;;;;;;0.68;0.30;;;;;;;20.44;100.00;101167.44;5014370;28;20041;-52
2023/08/10 07:48:03;;;;;;;0.40;0.40;;;;;;;20.52;100.00;101164.34;5015370;28;20043;-53
2023/08/10 07:50:29;;;;;;;0.52;0.10;;;;;;;20.66;100.00;101162.25;5010972;28;20040;-56
2023/08/10 07:52:54;;;;;;;3.00;0.65;;;;;;;20.71;100.00;101153.44;5014117;28;20311;-53
2023/08/10 07:55:19;;;;;;;1.05;0.38;;;;;;;20.95;100.00;101159.50;5014305;28;20041;-56
2023/08/10 07:57:45;;;;;;;0.47;0.35;;;;;;;21.09;100.00;101168.91;5014489;28;20080;-51
2023/08/10 08:00:11;;;;;;;0.30;0.20;;;;;;;21.19;100.00;101177.16;5013919;28;20442;-53
2023/08/10 08:02:37;;;;;;;1.40;0.85;;;;;;;21.29;100.00;101171.94;5013930;28;20133;-57
2023/08/10 08:05:03;;;;;;;0.43;0.22;;;;;;;21.39;100.00;101165.09;5012907;28;20026;-57
2023/08/10 08:07:30;;;;;;;1.85;1.23;;;;;;;21.53;100.00;101147.53;5015735;28;20483;-56
2023/08/10 08:09:57;;;;;;;0.10;0.10;;;;;;;21.69;100.00;101146.66;5013926;28;20036;-60
2023/08/10 08:12:22;;;;;;;0.13;0.13;;;;;;;21.80;100.00;101134.13;5017947;28;20053;-61
2023/08/10 08:14:48;;;;;;;0.32;0.32;;;;;;;22.06;100.00;101131.75;5015232;28;20546;-58
2023/08/10 08:17:14;;;;;;;1.02;0.65;;;;;;;22.30;100.00;101148.53;5015804;28;20037;-58
2023/08/10 08:19:40;;;;;;;1.38;0.60;;;;;;;22.43;100.00;101150.81;5012060;28;20026;-60
2023/08/10 08:22:05;;;;;;;0.30;0.30;;;;;;;22.67;100.00;101142.44;5013263;28;20124;-58
2023/08/10 08:24:31;;;;;;;0.40;0.35;;;;;;;22.69;100.00;101138.41;5015463;28;20036;-57
2023/08/10 08:26:59;;;;;;;0.20;0.20;;;;;;;22.73;100.00;101133.28;5014876;28;20030;-56
2023/08/10 08:29:24;;;;;;;0.57;0.20;;;;;;;22.78;100.00;101125.22;5017311;28;20033;-56
2023/08/10 08:31:50;;;;;;;0.45;0.20;;;;;;;22.86;100.00;101117.47;5009970;28;20669;-60
2023/08/10 08:34:15;;;;;;;3.42;0.20;;;;;;;23.12;100.00;101106.88;5012414;28;20522;-59
2023/08/10 08:36:41;;;;;;;0.80;0.20;;;;;;;23.35;100.00;101091.34;5015243;28;20083;-56
2023/08/10 08:39:06;;;;;;;0.43;0.25;;;;;;;23.40;100.00;101085.97;5014144;28;20034;-53
2023/08/10 08:41:37;;;;;;;1.00;0.32;;;;;;;23.50;100.00;101102.25;5013652;28;20052;-56
2023/08/10 08:44:06;;;;;;;0.30;0.20;;;;;;;23.60;100.00;101109.63;5013050;28;20120;-51
2023/08/10 08:46:33;;;;;;;2.80;0.08;;;;;;;23.76;100.00;101114.06;5028336;28;20503;-53
2023/08/10 08:49:00;;;;;;;1.20;0.10;;;;;;;23.92;100.00;101120.34;5013470;28;20034;-53
2023/08/10 08:51:26;;;;;;;0.35;0.35;;;;;;;24.01;100.00;101124.19;5013852;28;20040;-55
2023/08/10 08:53:52;;;;;;;0.40;0.10;;;;;;;24.24;100.00;101133.75;5011536;28;20030;-55
2023/08/10 08:56:18;;;;;;;1.40;0.30;;;;;;;24.24;100.00;101130.19;5014039;28;20034;-56
2023/08/10 08:58:44;;;;;;;2.00;0.10;;;;;;;24.29;100.00;101135.63;5014426;28;20032;-58
2023/08/10 09:01:12;;;;;;;0.98;0.22;;;;;;;24.38;100.00;101137.56;5014713;28;20038;-59
2023/08/10 09:03:38;;;;;;;0.65;0.35;;;;;;;24.41;100.00;101141.63;5014064;28;21393;-54
2023/08/10 09:06:04;;;;;;;0.70;0.30;;;;;;;24.55;100.00;101147.38;5014968;28;20037;-58
2023/08/10 09:08:29;;;;;;;0.20;0.20;;;;;;;24.61;100.00;101140.09;5016606;28;20034;-54
2023/08/10 09:10:55;;;;;;;1.65;0.10;;;;;;;24.54;100.00;101135.72;5011964;28;20037;-51
2023/08/10 09:13:22;;;;;;;1.20;0.45;;;;;;;24.76;100.00;101142.81;5017540;28;20637;-56
2023/08/10 09:16:03;;;;;;;1.67;0.50;;;;;;;24.73;100.00;101137.91;5016963;28;20029;-59
2023/08/10 09:18:34;;;;;;;0.75;0.15;;;;;;;24.76;100.00;101131.97;5019117;28;20139;-52
2023/08/10 09:21:14;;;;;;;0.85;0.13;;;;;;;25.01;100.00;101131.97;5014614;28;20103;-56
2023/08/10 09:23:42;;;;;;;5.28;0.20;;;;;;;25.17;100.00;101140.97;5018218;28;20095;-55
2023/08/10 09:26:11;;;;;;;0.90;0.60;;;;;;;24.99;100.00;101147.72;5017209;28;20281;-51
2023/08/10 09:28:39;;;;;;;1.02;0.30;;;;;;;24.99;100.00;101152.34;5018123;28;20434;-54
2023/08/10 09:31:09;;;;;;;0.90;0.10;;;;;;;25.31;100.00;101135.78;5014065;28;20048;-58
2023/08/10 09:33:36;;;;;;;0.63;0.40;;;;;;;25.48;100.00;101126.50;5014679;28;20029;-58
2023/08/10 09:36:04;;;;;;;0.20;0.08;;;;;;;25.65;100.00;101143.28;5015098;28;20037;-55
2023/08/10 09:38:29;;;;;;;1.00;0.22;;;;;;;25.82;100.00;101127.50;5015165;28;20079;-57
2023/08/10 09:41:12;;;;;;;0.68;0.22;;;;;;;25.84;100.00;101138.94;5013284;28;20026;-50
2023/08/10 09:43:43;;;;;;;0.75;0.30;;;;;;;25.97;100.00;101137.53;5018502;28;20433;-57
2023/08/10 09:46:10;;;;;;;0.17;0.17;;;;;;;26.10;100.00;101131.47;5016241;28;20545;-56
2023/08/10 09:48:39;;;;;;;1.48;0.98;;;;;;;26.17;100.00;101124.91;5017293;28;20298;-58
2023/08/10 09:51:06;;;;;;;0.28;0.10;;;;;;;26.22;100.00;101124.88;5012388;28;21217;-55
2023/08/10 09:53:33;;;;;;;0.52;0.20;;;;;;;26.38;100.00;101115.53;5018575;28;20437;-56
2023/08/10 09:56:00;;;;;;;3.47;0.38;;;;;;;26.44;100.00;101117.16;5011494;28;20511;-55
2023/08/10 09:58:26;;;;;;;0.22;0.10;;;;;;;26.56;100.00;101122.25;5017468;28;20498;-54
2023/08/10 10:00:52;;;;;;;1.00;0.20;;;;;;;26.56;100.00;101119.53;5015226;28;20037;-62
2023/08/10 10:03:19;;;;;;;1.88;0.30;;;;;;;26.53;100.00;101115.47;5016953;28;20032;-50
2023/08/10 10:05:45;;;;;;;0.38;0.35;;;;;;;26.66;100.00;101108.59;5013630;28;20917;-51
2023/08/10 10:08:14;;;;;;;0.40;0.40;;;;;;;26.71;100.00;101105.03;5017621;28;20030;-55
2023/08/10 10:10:42;;;;;;;2.00;0.00;;;;;;;26.85;100.00;101111.44;5014416;28;20628;-53
2023/08/10 10:13:12;;;;;;;0.63;0.20;;;;;;;26.85;100.00;101111.44;5015456;28;20069;-50
2023/08/10 10:15:39;;;;;;;1.52;0.43;;;;;;;26.74;100.00;101113.44;5016260;28;20317;-54
2023/08/10 10:18:05;;;;;;;0.65;0.40;;;;;;;26.97;100.00;101111.06;5015220;28;20033;-53
2023/08/10 10:20:32;;;;;;;0.30;0.30;;;;;;;27.13;100.00;101104.38;5016315;28;20068;-57
2023/08/10 10:22:58;;;;;;;0.40;0.20;;;;;;;27.25;100.00;101109.47;5019177;28;20037;-55
2023/08/10 10:25:23;;;;;;;0.13;0.13;;;;;;;27.27;100.00;101101.81;5011536;28;20107;-55
2023/08/10 10:27:50;;;;;;;1.88;0.40;;;;;;;27.15;100.00;101102.16;5015170;28;20029;-56
2023/08/10 10:30:17;;;;;;;0.30;0.30;;;;;;;26.98;100.00;101101.81;5015001;28;20406;-59
2023/08/10 10:32:48;;;;;;;1.25;0.20;;;;;;;27.36;100.00;101104.72;5013129;28;20061;-50
2023/08/10 10:35:15;;;;;;;0.40;0.20;;;;;;;27.50;100.00;101111.09;5013441;28;20039;-53
2023/08/10 10:37:41;;;;;;;0.17;0.10;;;;;;;27.65;100.00;101106.56;5014547;28;20487;-55
2023/08/10 10:40:18;;;;;;;0.28;0.20;;;;;;;27.54;100.00;101106.69;5013931;28;20063;-56
2023/08/10 10:43:02;;;;;;;1.83;0.40;;;;;;;27.37;100.00;101114.53;5014665;28;20026;-61
2023/08/10 10:45:28;;;;;;;1.55;0.20;;;;;;;27.04;100.00;101111.53;5012969;28;20152;-51
2023/08/10 10:47:55;;;;;;;1.00;0.50;;;;;;;27.02;100.00;101124.63;5016472;28;20026;-54
2023/08/10 10:50:28;;;;;;;0.70;0.30;;;;;;;26.95;100.00;101122.25;5014165;28;20664;-51
2023/08/10 10:52:58;;;;;;;3.95;0.75;;;;;;;27.35;100.00;101120.25;5015528;28;20033;-57
2023/08/10 10:55:44;;;;;;;0.52;0.50;;;;;;;27.33;100.00;101117.00;5013276;28;20029;-53
2023/08/10 10:58:12;;;;;;;1.27;0.50;;;;;;;27.30;100.00;101125.75;5014211;28;20064;-60
2023/08/10 11:00:38;;;;;;;1.10;0.30;;;;;;;27.00;100.00;101132.25;5018644;28;20120;-55
2023/08/10 11:03:05;;;;;;;1.17;0.25;;;;;;;26.91;100.00;101125.81;5014689;28;20568;-57
2023/08/10 11:05:31;;;;;;;0.77;0.40;;;;;;;27.07;100.00;101129.19;5013354;28;21092;-57
2023/08/10 11:08:03;;;;;;;0.38;0.35;;;;;;;27.61;100.00;101128.94;5012631;28;20029;-57
2023/08/10 11:10:29;;;;;;;0.30;0.30;;;;;;;27.79;100.00;101123.84;5014345;28;20034;-50
2023/08/10 11:12:54;;;;;;;0.63;0.20;;;;;;;27.68;100.00;101119.63;5013827;28;20037;-53
2023/08/10 11:15:19;;;;;;;0.30;0.25;;;;;;;27.50;100.00;101119.28;5014854;28;20041;-54